Terminal Aerodrome Forecast
Issued by NWS Charleston, WV

Current Version | Previous Version | Graphics & Text | Print | Product List | Glossary On
Versions: 1 2 3 4 5 6 7 8 9 10 11 12 13 14 15
000
FTUS41 KRLX 241500 AAA
TAFEKN
TAF AMD
KEKN 241535Z 2416/2512 17007KT 6SM SHRA BR BKN045
     FM241800 18009G15KT P6SM BKN040
     FM250000 22015G35KT 3SM SHRA BR VCTS OVC020CB
     FM250300 23013G28KT 4SM SHRA BR VCTS OVC025CB
     FM250500 26012G23KT 5SM -SHRA BR BKN030
     FM250700 26009G25KT 5SM BR BKN030=

USA.gov is the U.S. government's official web portal to all federal, state and local government web resources and services.